createdAt,value
2018-12-31T00:01:36.387Z,56.44
2018-12-31T00:04:44.016Z,56.56
2018-12-31T00:08:42.738Z,57.06
2018-12-31T00:32:48.437Z,56.79
2018-12-31T00:35:30.014Z,57.21
2018-12-31T00:44:44.591Z,56.78
2018-12-31T00:50:36.293Z,57.09
2018-12-31T00:53:46.662Z,56.92
2018-12-31T01:00:08.439Z,56.77
2018-12-31T01:05:47.082Z,56.61
2018-12-31T01:11:41.807Z,56.91
2018-12-31T01:20:25.851Z,57.39
2018-12-31T01:26:17.562Z,56.58
2018-12-31T01:29:00.370Z,56.20
2018-12-31T01:34:52.721Z,55.47
2018-12-31T01:38:16.572Z,55.93
2018-12-31T01:40:40.979Z,56.25
2018-12-31T01:43:51.795Z,56.38
2018-12-31T01:46:33.291Z,56.18
2018-12-31T01:49:25.984Z,56.33
2018-12-31T01:52:28.097Z,56.52
2018-12-31T01:55:46.218Z,56.70
2018-12-31T02:04:43.485Z,56.47
2018-12-31T02:07:34.688Z,56.47
2018-12-31T02:13:15.660Z,57.30
2018-12-31T02:15:47.502Z,57.79
2018-12-31T02:18:19.662Z,57.92
2018-12-31T02:21:08.964Z,58.11
2018-12-31T02:23:58.066Z,57.41
2018-12-31T02:26:47.366Z,57.28
2018-12-31T02:29:36.602Z,57.36
2018-12-31T02:34:34.701Z,57.10
2018-12-31T02:37:07.253Z,56.87
2018-12-31T02:42:21.535Z,57.61
2018-12-31T02:45:23.714Z,57.26
2018-12-31T02:48:02.093Z,57.68
2018-12-31T02:50:51.627Z,57.73
2018-12-31T02:53:43.159Z,57.49
2018-12-31T02:56:32.584Z,57.75
2018-12-31T02:59:03.303Z,57.46
2018-12-31T03:01:52.598Z,57.61
2018-12-31T03:04:22.981Z,57.03
2018-12-31T03:06:54.265Z,57.42
2018-12-31T03:09:43.979Z,57.12
2018-12-31T03:12:14.331Z,57.35
2018-12-31T03:14:44.743Z,56.12
2018-12-31T03:17:34.130Z,56.14
2018-12-31T03:20:23.111Z,56.92
2018-12-31T03:26:04.721Z,55.53
2018-12-31T03:28:53.956Z,55.34
2018-12-31T03:31:27.109Z,56.48
2018-12-31T03:36:40.359Z,57.01
2018-12-31T03:39:26.288Z,56.69
2018-12-31T03:42:24.073Z,56.66
2018-12-31T03:44:54.342Z,56.69
2018-12-31T03:47:24.766Z,56.69
2018-12-31T03:56:40.002Z,57.36
2018-12-31T04:08:11.922Z,57.69
2018-12-31T04:11:01.219Z,58.18
2018-12-31T04:13:31.479Z,57.95
2018-12-31T04:16:02.844Z,57.95
2018-12-31T04:19:12.648Z,57.94
2018-12-31T04:22:06.650Z,56.78
2018-12-31T04:27:44.784Z,57.44
2018-12-31T04:30:27.110Z,57.59
2018-12-31T04:33:16.419Z,58.22
2018-12-31T04:35:46.740Z,57.34
2018-12-31T04:38:18.896Z,56.81
2018-12-31T04:41:10.390Z,57.20
2018-12-31T04:43:40.644Z,57.24
2018-12-31T04:46:23.407Z,56.71
2018-12-31T04:48:43.088Z,57.22
2018-12-31T04:51:14.062Z,56.42
2018-12-31T04:53:44.369Z,56.16
2018-12-31T04:56:14.785Z,56.88
2018-12-31T04:58:44.994Z,55.71
2018-12-31T05:01:15.260Z,55.80
2018-12-31T05:04:04.497Z,55.91
2018-12-31T05:09:44.135Z,55.95
2018-12-31T05:12:14.575Z,56.48
2018-12-31T05:14:44.933Z,56.90
2018-12-31T05:17:34.240Z,57.35
2018-12-31T05:20:04.645Z,55.69
2018-12-31T05:22:35.031Z,55.66
2018-12-31T05:28:10.906Z,55.53
2018-12-31T05:30:41.836Z,54.89
2018-12-31T05:33:14.531Z,54.96
2018-12-31T05:36:03.764Z,54.99
2018-12-31T05:38:35.250Z,55.65
2018-12-31T05:41:24.201Z,56.25
2018-12-31T05:43:54.500Z,56.60
2018-12-31T05:46:44.671Z,55.58
2018-12-31T05:49:33.680Z,55.60
2018-12-31T05:55:12.087Z,55.00
2018-12-31T05:58:01.310Z,55.69
2018-12-31T06:00:50.962Z,55.92
2018-12-31T06:03:40.395Z,55.98
2018-12-31T06:09:11.723Z,56.54
2018-12-31T06:12:01.036Z,56.86
2018-12-31T06:14:52.198Z,56.82
2018-12-31T06:17:33.651Z,57.68
2018-12-31T06:20:03.968Z,57.68
2018-12-31T06:22:53.325Z,57.34
2018-12-31T06:26:03.206Z,56.99
2018-12-31T06:28:33.466Z,56.49
2018-12-31T06:31:23.137Z,55.81
2018-12-31T06:34:12.072Z,55.68
2018-12-31T06:36:44.159Z,55.51
2018-12-31T06:39:33.494Z,56.21
2018-12-31T06:42:04.745Z,55.40
2018-12-31T06:44:54.012Z,54.89
2018-12-31T06:47:24.354Z,54.80
2018-12-31T06:49:54.722Z,55.12
2018-12-31T06:52:44.150Z,55.12
2018-12-31T06:58:34.272Z,55.41
2018-12-31T07:01:04.560Z,55.77
2018-12-31T07:03:54.477Z,56.37
2018-12-31T07:06:54.077Z,56.28
2018-12-31T07:09:24.663Z,56.28
2018-12-31T07:12:13.903Z,56.57
2018-12-31T07:15:08.079Z,56.50
2018-12-31T07:17:41.465Z,56.29
2018-12-31T07:20:11.794Z,56.55
2018-12-31T07:23:01.099Z,56.71
2018-12-31T07:25:32.284Z,56.46
2018-12-31T07:28:02.648Z,56.71
2018-12-31T07:30:52.017Z,56.41
2018-12-31T07:33:22.440Z,56.47
2018-12-31T07:36:12.248Z,55.45
2018-12-31T07:38:42.823Z,55.53
2018-12-31T07:41:13.273Z,55.46
2018-12-31T07:44:02.917Z,55.76
2018-12-31T07:46:35.807Z,55.59
2018-12-31T07:49:06.130Z,55.54
2018-12-31T07:52:14.392Z,55.93
2018-12-31T07:54:44.832Z,55.54
2018-12-31T07:57:17.016Z,56.01
2018-12-31T08:00:07.767Z,55.17
2018-12-31T08:05:58.719Z,54.30
2018-12-31T08:08:28.991Z,54.81
2018-12-31T08:11:01.903Z,54.21
2018-12-31T08:14:09.917Z,54.21
2018-12-31T08:19:49.294Z,54.72
2018-12-31T08:29:00.774Z,55.29
2018-12-31T08:32:07.413Z,55.49
2018-12-31T08:35:22.830Z,55.46
2018-12-31T08:41:32.040Z,54.98
2018-12-31T08:44:34.105Z,54.74
2018-12-31T08:54:21.271Z,54.94
2018-12-31T08:57:14.568Z,54.99
2018-12-31T09:03:26.187Z,54.03
2018-12-31T09:15:48.404Z,53.00
2018-12-31T09:18:50.395Z,52.96
2018-12-31T09:22:03.151Z,52.70
2018-12-31T09:25:38.033Z,52.70
2018-12-31T09:29:02.385Z,52.82
2018-12-31T09:38:03.290Z,52.90
2018-12-31T09:50:19.306Z,52.89
2018-12-31T10:00:54.021Z,51.95
2018-12-31T10:03:39.688Z,52.58
2018-12-31T10:06:46.863Z,52.99
2018-12-31T10:10:06.541Z,52.99
2018-12-31T10:15:47.145Z,51.96
2018-12-31T10:18:37.321Z,51.98
2018-12-31T10:21:26.470Z,52.39
2018-12-31T10:30:30.410Z,52.84
2018-12-31T10:33:19.636Z,52.21
2018-12-31T10:35:52.843Z,51.63
2018-12-31T10:41:30.999Z,51.81
2018-12-31T10:44:32.288Z,52.13
2018-12-31T10:47:11.019Z,51.82
2018-12-31T10:49:41.238Z,52.15
2018-12-31T10:52:11.439Z,52.28
2018-12-31T10:55:00.621Z,51.70
2018-12-31T10:57:50.723Z,51.84
2018-12-31T11:00:29.448Z,51.67
2018-12-31T11:03:16.333Z,52.52
2018-12-31T11:06:13.922Z,51.96
2018-12-31T11:12:17.013Z,52.96
2018-12-31T11:14:30.900Z,52.88
2018-12-31T11:19:42.008Z,52.58
2018-12-31T11:25:13.538Z,52.33
2018-12-31T11:28:03.984Z,52.90
2018-12-31T11:30:34.278Z,52.74
2018-12-31T11:33:04.482Z,52.62
2018-12-31T11:38:43.677Z,51.75
2018-12-31T11:41:34.569Z,51.38
2018-12-31T11:47:25.976Z,51.44
2018-12-31T11:50:14.803Z,51.53
2018-12-31T11:53:04.049Z,51.79
2018-12-31T11:58:35.294Z,51.09
2018-12-31T12:01:07.403Z,51.09
2018-12-31T12:06:28.175Z,52.19
2018-12-31T12:11:40.614Z,51.50
2018-12-31T12:14:10.846Z,51.42
2018-12-31T12:17:16.838Z,50.52
2018-12-31T12:19:44.498Z,50.85
2018-12-31T12:22:15.035Z,51.39
2018-12-31T12:27:40.085Z,50.32
2018-12-31T12:30:49.736Z,50.92
2018-12-31T12:33:20.141Z,51.34
2018-12-31T12:36:09.319Z,51.18
2018-12-31T12:38:39.658Z,51.34
2018-12-31T12:44:37.874Z,52.12
2018-12-31T12:50:38.103Z,52.04
2018-12-31T12:53:27.315Z,51.52
2018-12-31T12:59:13.009Z,50.90
2018-12-31T13:05:04.296Z,49.86
2018-12-31T13:07:34.556Z,50.21
2018-12-31T13:16:14.756Z,50.97
2018-12-31T13:18:47.657Z,50.16
2018-12-31T13:24:31.780Z,51.38
2018-12-31T13:27:23.283Z,51.20
2018-12-31T13:29:54.478Z,50.23
2018-12-31T13:39:06.540Z,51.52
2018-12-31T13:41:56.847Z,51.00
2018-12-31T13:45:01.057Z,51.42
2018-12-31T13:47:39.462Z,51.81
2018-12-31T13:50:29.610Z,51.70
2018-12-31T13:53:19.731Z,51.14
2018-12-31T13:56:05.151Z,51.64
2018-12-31T13:59:13.044Z,51.94
2018-12-31T14:01:44.228Z,51.78
2018-12-31T14:04:33.507Z,51.91
2018-12-31T14:07:43.025Z,52.17
2018-12-31T14:13:24.215Z,52.32
2018-12-31T14:16:13.177Z,52.00
2018-12-31T14:18:44.070Z,51.33
2018-12-31T14:24:35.808Z,49.53
2018-12-31T14:27:25.097Z,47.97
2018-12-31T14:29:55.344Z,47.11
2018-12-31T14:32:25.536Z,47.89
2018-12-31T14:35:35.875Z,48.02
2018-12-31T14:44:30.814Z,47.99
2018-12-31T14:47:22.523Z,46.88
2018-12-31T14:53:26.664Z,47.29
2018-12-31T14:56:25.181Z,47.01
2018-12-31T14:59:16.180Z,47.48
2018-12-31T15:01:47.868Z,47.35
2018-12-31T15:04:18.135Z,47.04
2018-12-31T15:07:07.397Z,47.47
2018-12-31T15:09:38.617Z,48.27
2018-12-31T15:13:00.654Z,48.90
2018-12-31T15:15:22.275Z,49.81
2018-12-31T15:17:52.653Z,50.41
2018-12-31T15:20:42.993Z,50.45
2018-12-31T15:23:32.032Z,50.59
2018-12-31T15:26:21.481Z,50.40
2018-12-31T15:32:14.809Z,50.99
2018-12-31T15:34:45.653Z,50.69
2018-12-31T15:37:18.191Z,50.80
2018-12-31T15:40:07.486Z,50.85
2018-12-31T15:43:09.003Z,50.63
2018-12-31T15:45:30.823Z,50.51
2018-12-31T15:48:03.729Z,50.59
2018-12-31T15:51:04.780Z,50.99
2018-12-31T15:53:28.207Z,51.04
2018-12-31T16:01:54.401Z,51.19
2018-12-31T16:05:08.941Z,51.19
2018-12-31T16:10:35.377Z,50.79
2018-12-31T16:16:10.580Z,50.06
2018-12-31T16:19:19.977Z,50.55
2018-12-31T16:22:14.440Z,50.31
2018-12-31T16:24:44.668Z,50.65
2018-12-31T16:27:15.018Z,50.64
2018-12-31T16:30:06.507Z,50.09
2018-12-31T16:32:36.767Z,49.79
2018-12-31T16:35:31.403Z,50.02
2018-12-31T16:38:10.539Z,49.97
2018-12-31T16:41:01.274Z,50.48
2018-12-31T16:43:43.638Z,51.00
2018-12-31T16:46:41.559Z,51.40
2018-12-31T16:49:26.703Z,51.39
2018-12-31T16:52:37.211Z,51.60
2018-12-31T16:58:09.795Z,51.11
2018-12-31T17:00:40.999Z,51.26
2018-12-31T17:03:30.715Z,51.12
2018-12-31T17:09:13.070Z,50.63
2018-12-31T17:14:55.038Z,50.00
2018-12-31T17:17:40.832Z,49.40
2018-12-31T17:20:30.099Z,48.91
2018-12-31T17:23:00.445Z,49.21
2018-12-31T17:26:09.938Z,49.30
2018-12-31T17:28:40.272Z,49.06
2018-12-31T17:34:42.494Z,49.79
2018-12-31T17:37:34.869Z,48.94
2018-12-31T17:40:43.062Z,48.59
2018-12-31T17:50:15.452Z,47.75
2018-12-31T17:53:19.588Z,47.94
2018-12-31T17:56:09.662Z,47.67
2018-12-31T17:59:20.072Z,47.57
2018-12-31T18:02:24.325Z,47.46
2018-12-31T18:05:02.033Z,47.38
2018-12-31T18:07:51.364Z,47.28
2018-12-31T18:10:41.894Z,47.52
2018-12-31T18:13:31.231Z,48.29
2018-12-31T18:19:13.675Z,48.65
2018-12-31T18:22:17.260Z,49.03
2018-12-31T18:24:48.754Z,49.02
2018-12-31T18:27:21.986Z,49.02
2018-12-31T18:30:14.291Z,49.40
2018-12-31T18:35:45.026Z,49.76
2018-12-31T18:38:35.500Z,50.09
2018-12-31T18:41:10.369Z,49.98
2018-12-31T18:43:41.599Z,50.38
2018-12-31T18:46:12.790Z,49.94
2018-12-31T18:52:16.243Z,49.26
2018-12-31T18:54:52.105Z,49.21
2018-12-31T19:00:03.700Z,49.45
2018-12-31T19:02:53.618Z,49.45
2018-12-31T19:05:55.472Z,49.75
2018-12-31T19:08:45.957Z,50.10
2018-12-31T19:17:14.111Z,49.85
2018-12-31T19:19:46.232Z,49.50
2018-12-31T19:22:22.944Z,49.79
2018-12-31T19:24:54.157Z,49.39
2018-12-31T19:28:02.084Z,49.08
2018-12-31T19:30:52.386Z,49.09
2018-12-31T19:33:43.302Z,49.47
2018-12-31T19:36:34.212Z,49.40
2018-12-31T19:39:06.613Z,50.37
2018-12-31T19:44:29.894Z,50.19
2018-12-31T19:47:25.170Z,50.24
2018-12-31T19:50:16.356Z,50.03
2018-12-31T19:53:07.329Z,49.73
2018-12-31T19:59:23.444Z,49.60
2018-12-31T20:02:24.631Z,49.31
2018-12-31T20:08:29.047Z,50.11
2018-12-31T20:11:08.819Z,50.19
2018-12-31T20:13:45.116Z,50.11
2018-12-31T20:16:27.706Z,48.36
2018-12-31T20:19:03.274Z,48.36
2018-12-31T20:21:35.340Z,49.25
2018-12-31T20:24:31.486Z,48.89
2018-12-31T20:30:26.612Z,49.24
2018-12-31T20:32:55.531Z,49.20
2018-12-31T20:36:04.071Z,49.22
2018-12-31T20:38:53.789Z,48.89
2018-12-31T20:44:52.680Z,49.98
2018-12-31T20:47:43.742Z,49.32
2018-12-31T20:50:51.669Z,50.82
2018-12-31T20:57:02.127Z,50.17
2018-12-31T20:59:42.960Z,50.93
2018-12-31T21:02:27.831Z,50.74
2018-12-31T21:05:07.863Z,51.07
2018-12-31T21:08:13.646Z,50.57
2018-12-31T21:11:16.466Z,50.81
2018-12-31T21:13:47.619Z,50.88
2018-12-31T21:16:18.905Z,50.89
2018-12-31T21:22:17.960Z,49.99
2018-12-31T21:25:08.182Z,50.01
2018-12-31T21:27:39.394Z,50.11
2018-12-31T21:30:13.100Z,49.70
2018-12-31T21:36:14.715Z,50.92
2018-12-31T21:39:36.645Z,51.00
2018-12-31T21:42:08.077Z,51.06
2018-12-31T21:44:58.430Z,50.97
2018-12-31T21:47:29.513Z,51.74
2018-12-31T21:56:04.128Z,51.16
2018-12-31T21:59:28.429Z,50.55
2018-12-31T22:02:06.591Z,50.64
2018-12-31T22:07:58.763Z,52.02
2018-12-31T22:11:00.621Z,52.30
2018-12-31T22:20:15.586Z,53.73
2018-12-31T22:23:25.819Z,53.37
2018-12-31T22:29:43.749Z,53.99
2018-12-31T22:32:33.810Z,53.87
2018-12-31T22:35:05.008Z,54.51
2018-12-31T22:40:26.472Z,54.29
2018-12-31T22:46:22.078Z,53.59
2018-12-31T22:48:53.262Z,53.85
2018-12-31T22:51:49.561Z,53.88
2018-12-31T22:57:42.242Z,53.79
2018-12-31T23:00:15.512Z,53.66
2018-12-31T23:02:46.814Z,54.65
2018-12-31T23:08:56.749Z,55.07
2018-12-31T23:11:34.231Z,56.00
2018-12-31T23:14:11.329Z,55.64
2018-12-31T23:17:22.866Z,54.75
2018-12-31T23:20:44.517Z,54.43
2018-12-31T23:23:23.607Z,55.02
2018-12-31T23:26:35.633Z,55.93
2018-12-31T23:29:11.848Z,56.04
2018-12-31T23:32:07.910Z,55.50
2018-12-31T23:34:42.667Z,55.65
2018-12-31T23:37:13.933Z,55.67
2018-12-31T23:40:36.079Z,56.07
2018-12-31T23:43:06.599Z,56.36
2018-12-31T23:46:02.535Z,57.12
2018-12-31T23:49:03.987Z,56.74
